createdAt,value
2018-07-25T00:00:10.517Z,70.81
2018-07-25T00:01:10.517Z,69.94
2018-07-25T00:02:10.515Z,69.74
2018-07-25T00:03:10.564Z,70.62
2018-07-25T00:04:10.514Z,69.52
2018-07-25T00:05:10.519Z,69.71
2018-07-25T00:06:10.530Z,70.48
2018-07-25T00:07:10.513Z,70.68
2018-07-25T00:08:10.510Z,70.68
2018-07-25T00:09:10.510Z,70.39
2018-07-25T00:10:10.511Z,70.48
2018-07-25T00:11:10.511Z,70.78
2018-07-25T00:12:10.509Z,71.06
2018-07-25T00:13:10.512Z,71.06
2018-07-25T00:14:10.515Z,71.55
2018-07-25T00:15:10.507Z,70.97
2018-07-25T00:16:10.510Z,70.68
2018-07-25T00:17:10.506Z,70.97
2018-07-25T00:18:10.508Z,70.78
2018-07-25T00:19:10.505Z,70.68
2018-07-25T00:20:10.505Z,71.45
2018-07-25T00:21:10.502Z,71.80
2018-07-25T00:22:10.503Z,71.42
2018-07-25T00:23:10.505Z,71.22
2018-07-25T00:24:10.501Z,71.55
2018-07-25T00:25:10.501Z,72.86
2018-07-25T00:26:10.499Z,73.19
2018-07-25T00:27:10.509Z,71.74
2018-07-25T00:28:10.616Z,72.03
2018-07-25T00:29:10.500Z,72.38
2018-07-25T00:30:10.499Z,72.96
2018-07-25T00:31:10.523Z,72.77
2018-07-25T00:32:10.499Z,72.96
2018-07-25T00:33:10.494Z,72.96
2018-07-25T00:34:10.499Z,72.86
2018-07-25T00:35:10.493Z,73.06
2018-07-25T00:36:10.493Z,72.58
2018-07-25T00:37:10.495Z,72.48
2018-07-25T00:38:10.495Z,72.86
2018-07-25T00:39:10.496Z,73.06
2018-07-25T00:40:10.489Z,72.00
2018-07-25T00:41:10.487Z,70.94
2018-07-25T00:42:10.492Z,71.22
2018-07-25T00:43:10.485Z,71.70
2018-07-25T00:44:10.482Z,71.42
2018-07-25T00:45:10.492Z,71.42
2018-07-25T00:46:10.485Z,71.80
2018-07-25T00:47:10.482Z,72.58
2018-07-25T00:48:10.479Z,72.86
2018-07-25T00:49:10.480Z,73.44
2018-07-25T00:50:10.480Z,72.96
2018-07-25T00:51:10.477Z,73.15
2018-07-25T00:52:10.482Z,72.96
2018-07-25T00:53:10.480Z,72.28
2018-07-25T00:54:10.476Z,72.19
2018-07-25T00:55:10.475Z,71.61
2018-07-25T00:56:10.477Z,71.80
2018-07-25T00:57:10.476Z,71.51
2018-07-25T00:58:10.473Z,73.06
2018-07-25T00:59:10.479Z,73.35
2018-07-25T01:00:10.474Z,73.63
2018-07-25T01:01:10.474Z,73.35
2018-07-25T01:02:10.501Z,73.93
2018-07-25T01:03:10.471Z,74.02
2018-07-25T01:04:10.464Z,74.31
2018-07-25T01:05:10.471Z,74.41
2018-07-25T01:06:10.464Z,74.21
2018-07-25T01:07:10.462Z,75.18
2018-07-25T01:08:10.462Z,75.18
2018-07-25T01:09:10.459Z,75.92
2018-07-25T01:10:10.470Z,75.53
2018-07-25T01:11:10.464Z,75.82
2018-07-25T01:12:10.463Z,76.01
2018-07-25T01:13:10.464Z,76.20
2018-07-25T01:14:10.455Z,76.01
2018-07-25T01:15:10.454Z,76.59
2018-07-25T01:16:10.451Z,76.40
2018-07-25T01:17:10.458Z,76.30
2018-07-25T01:18:10.456Z,76.98
2018-07-25T01:19:10.454Z,77.65
2018-07-25T01:20:10.449Z,77.94
2018-07-25T01:21:10.450Z,77.65
2018-07-25T01:22:10.445Z,78.13
2018-07-25T01:23:10.449Z,78.03
2018-07-25T01:24:10.443Z,77.46
2018-07-25T01:25:10.447Z,76.78
2018-07-25T01:26:10.492Z,76.78
2018-07-25T01:27:10.445Z,77.07
2018-07-25T01:28:10.439Z,76.88
2018-07-25T01:29:10.438Z,76.59
2018-07-25T01:30:10.439Z,76.88
2018-07-25T01:31:10.436Z,76.50
2018-07-25T01:32:10.436Z,76.88
2018-07-25T01:33:10.440Z,76.98
2018-07-25T01:34:10.434Z,76.78
2018-07-25T01:35:10.432Z,76.88
2018-07-25T01:36:10.432Z,76.78
2018-07-25T01:37:10.429Z,76.98
2018-07-25T01:38:10.430Z,77.07
2018-07-25T01:39:10.426Z,76.88
2018-07-25T01:40:10.425Z,77.07
2018-07-25T01:41:10.428Z,77.46
2018-07-25T01:42:10.426Z,77.07
2018-07-25T01:43:10.421Z,76.98
2018-07-25T01:44:10.424Z,76.78
2018-07-25T01:45:10.425Z,77.46
2018-07-25T01:46:10.421Z,77.17
2018-07-25T01:47:10.417Z,76.78
2018-07-25T01:48:10.415Z,76.20
2018-07-25T01:49:10.416Z,75.62
2018-07-25T01:50:10.411Z,75.14
2018-07-25T01:51:10.411Z,75.72
2018-07-25T01:52:10.410Z,75.05
2018-07-25T01:53:10.412Z,75.24
2018-07-25T01:54:10.407Z,75.72
2018-07-25T01:55:10.415Z,75.72
2018-07-25T01:56:10.411Z,75.72
2018-07-25T01:57:10.407Z,75.72
2018-07-25T01:58:10.404Z,75.92
2018-07-25T01:59:10.401Z,76.40
2018-07-25T02:00:10.400Z,76.59
2018-07-25T02:01:10.399Z,76.20
2018-07-25T02:02:10.398Z,76.59
2018-07-25T02:03:10.395Z,76.50
2018-07-25T02:04:10.392Z,76.40
2018-07-25T02:05:10.395Z,76.68
2018-07-25T02:06:10.395Z,77.17
2018-07-25T02:07:10.391Z,77.61
2018-07-25T02:08:10.442Z,77.81
2018-07-25T02:09:10.394Z,77.90
2018-07-25T02:10:10.391Z,77.90
2018-07-25T02:11:10.387Z,77.90
2018-07-25T02:12:10.391Z,78.00
2018-07-25T02:13:10.380Z,77.71
2018-07-25T02:14:10.379Z,78.67
2018-07-25T02:15:10.382Z,78.33
2018-07-25T02:16:10.376Z,76.88
2018-07-25T02:17:10.376Z,76.65
2018-07-25T02:18:10.378Z,76.50
2018-07-25T02:19:10.374Z,75.88
2018-07-25T02:20:10.371Z,76.26
2018-07-25T02:21:10.376Z,76.65
2018-07-25T02:22:10.366Z,77.03
2018-07-25T02:23:10.366Z,76.36
2018-07-25T02:24:10.369Z,76.55
2018-07-25T02:25:10.368Z,76.65
2018-07-25T02:26:10.366Z,76.84
2018-07-25T02:27:10.360Z,78.86
2018-07-25T02:28:10.360Z,78.67
2018-07-25T02:29:10.362Z,78.96
2018-07-25T02:30:10.361Z,79.35
2018-07-25T02:31:10.357Z,79.74
2018-07-25T02:32:10.359Z,79.64
2018-07-25T02:33:10.353Z,79.60
2018-07-25T02:34:10.351Z,79.31
2018-07-25T02:35:10.354Z,79.41
2018-07-25T02:36:10.352Z,79.31
2018-07-25T02:37:10.346Z,79.50
2018-07-25T02:38:10.343Z,79.50
2018-07-25T02:39:10.344Z,79.69
2018-07-25T02:40:10.346Z,80.18
2018-07-25T02:41:10.340Z,80.08
2018-07-25T02:42:10.338Z,80.37
2018-07-25T02:43:10.342Z,79.98
2018-07-25T02:44:10.341Z,79.60
2018-07-25T02:45:10.334Z,79.11
2018-07-25T02:46:10.336Z,79.02
2018-07-25T02:47:10.332Z,79.41
2018-07-25T02:48:10.354Z,79.60
2018-07-25T02:49:10.335Z,79.31
2018-07-25T02:50:10.326Z,79.98
2018-07-25T02:51:10.324Z,80.27
2018-07-25T02:52:10.321Z,81.14
2018-07-25T02:53:10.323Z,81.04
2018-07-25T02:54:10.320Z,81.24
2018-07-25T02:55:10.321Z,81.72
2018-07-25T02:56:10.318Z,80.85
2018-07-25T02:57:10.315Z,80.94
2018-07-25T02:58:10.311Z,81.14
2018-07-25T02:59:10.316Z,81.52
2018-07-25T03:00:10.309Z,81.81
2018-07-25T03:01:10.309Z,81.43
2018-07-25T03:02:10.311Z,81.52
2018-07-25T03:03:10.343Z,82.20
2018-07-25T03:04:10.299Z,82.49
2018-07-25T03:05:10.308Z,81.52
2018-07-25T03:06:10.296Z,81.43
2018-07-25T03:07:10.301Z,80.76
2018-07-25T03:08:10.293Z,80.46
2018-07-25T03:09:10.425Z,80.56
2018-07-25T03:10:10.290Z,80.27
2018-07-25T03:11:10.301Z,80.85
2018-07-25T03:12:10.298Z,80.27
2018-07-25T03:13:10.286Z,80.71
2018-07-25T03:14:10.313Z,81.39
2018-07-25T03:15:10.286Z,81.29
2018-07-25T03:16:10.279Z,80.71
2018-07-25T03:17:10.277Z,80.81
2018-07-25T03:18:10.280Z,79.41
2018-07-25T03:19:10.281Z,78.83
2018-07-25T03:20:10.272Z,78.63
2018-07-25T03:21:10.276Z,77.96
2018-07-25T03:22:10.271Z,77.67
2018-07-25T03:23:10.272Z,78.34
2018-07-25T03:24:10.267Z,78.25
2018-07-25T03:25:10.270Z,78.63
2018-07-25T03:26:10.263Z,78.83
2018-07-25T03:27:10.259Z,79.41
2018-07-25T03:28:10.256Z,79.41
2018-07-25T03:29:10.257Z,80.27
2018-07-25T03:30:10.261Z,79.31
2018-07-25T03:31:10.255Z,79.31
2018-07-25T03:32:10.253Z,79.60
2018-07-25T03:33:10.250Z,79.66
2018-07-25T03:34:10.245Z,80.62
2018-07-25T03:35:10.244Z,81.01
2018-07-25T03:36:10.240Z,80.71
2018-07-25T03:37:10.239Z,81.29
2018-07-25T03:38:10.237Z,81.10
2018-07-25T03:39:10.240Z,81.01
2018-07-25T03:40:10.235Z,81.20
2018-07-25T03:41:10.232Z,80.81
2018-07-25T03:42:10.237Z,81.68
2018-07-25T03:43:10.227Z,82.06
2018-07-25T03:44:10.228Z,82.06
2018-07-25T03:45:10.228Z,82.06
2018-07-25T03:46:10.223Z,82.45
2018-07-25T03:47:10.219Z,82.45
2018-07-25T03:48:10.258Z,82.16
2018-07-25T03:49:10.215Z,82.64
2018-07-25T03:50:10.216Z,82.74
2018-07-25T03:51:10.214Z,82.74
2018-07-25T03:52:10.211Z,82.74
2018-07-25T03:53:10.212Z,83.03
2018-07-25T03:54:10.206Z,82.54
2018-07-25T03:55:10.213Z,82.83
2018-07-25T03:56:10.202Z,83.31
2018-07-25T03:57:10.201Z,83.70
2018-07-25T03:58:10.197Z,83.99
2018-07-25T03:59:10.195Z,83.61
2018-07-25T04:00:10.193Z,83.31
2018-07-25T04:01:10.191Z,82.83
2018-07-25T04:02:10.190Z,83.22
2018-07-25T04:03:10.188Z,83.41
2018-07-25T04:04:10.190Z,84.18
2018-07-25T04:05:10.189Z,83.89
2018-07-25T04:06:10.181Z,83.80
2018-07-25T04:07:10.178Z,84.09
2018-07-25T04:08:10.212Z,83.41
2018-07-25T04:09:10.217Z,83.31
2018-07-25T04:10:10.172Z,84.18
2018-07-25T04:11:10.174Z,83.41
2018-07-25T04:12:10.169Z,83.70
2018-07-25T04:13:10.167Z,83.89
2018-07-25T04:14:10.168Z,84.28
2018-07-25T04:15:10.165Z,83.99
2018-07-25T04:16:10.160Z,83.80
2018-07-25T04:17:10.160Z,84.18
2018-07-25T04:18:10.158Z,83.70
2018-07-25T04:19:10.156Z,83.80
2018-07-25T04:20:10.154Z,83.80
2018-07-25T04:21:10.150Z,83.80
2018-07-25T04:22:10.148Z,84.28
2018-07-25T04:23:10.147Z,83.89
2018-07-25T04:24:10.146Z,84.28
2018-07-25T04:25:10.143Z,84.47
2018-07-25T04:26:10.145Z,84.86
2018-07-25T04:27:10.141Z,84.95
2018-07-25T04:28:10.135Z,84.95
2018-07-25T04:29:10.139Z,84.56
2018-07-25T04:30:10.158Z,83.70
2018-07-25T04:31:10.132Z,83.99
2018-07-25T04:32:10.128Z,84.09
2018-07-25T04:33:10.126Z,83.99
2018-07-25T04:34:10.125Z,83.80
2018-07-25T04:35:10.126Z,83.51
2018-07-25T04:36:10.120Z,83.26
2018-07-25T04:37:10.117Z,81.76
2018-07-25T04:38:10.118Z,81.22
2018-07-25T04:39:10.115Z,79.72
2018-07-25T04:40:10.113Z,78.66
2018-07-25T04:41:10.110Z,76.67
2018-07-25T04:42:10.115Z,75.64
2018-07-25T04:43:10.109Z,73.80
2018-07-25T04:44:10.107Z,72.88
2018-07-25T04:45:10.105Z,71.66
2018-07-25T04:46:10.122Z,70.59
2018-07-25T04:47:10.111Z,69.75
2018-07-25T04:48:10.103Z,68.69
2018-07-25T04:49:10.103Z,68.24
2018-07-25T04:50:10.108Z,66.82
2018-07-25T04:51:10.110Z,65.85
2018-07-25T04:52:10.106Z,65.17
2018-07-25T04:53:10.104Z,64.72
2018-07-25T04:54:10.104Z,64.62
2018-07-25T04:55:10.108Z,64.37
2018-07-25T04:56:10.184Z,63.75
2018-07-25T04:57:10.111Z,64.47
2018-07-25T04:58:10.114Z,63.49
2018-07-25T04:59:10.110Z,63.78
2018-07-25T05:00:10.114Z,63.33
2018-07-25T05:01:10.112Z,63.26
2018-07-25T05:02:10.120Z,62.36
2018-07-25T05:03:10.115Z,62.29
2018-07-25T05:04:10.116Z,61.65
2018-07-25T05:05:10.120Z,61.25
2018-07-25T05:06:10.123Z,60.90
2018-07-25T05:07:10.187Z,60.22
2018-07-25T05:08:10.127Z,60.31
2018-07-25T05:09:10.129Z,59.64
2018-07-25T05:10:10.132Z,59.76
2018-07-25T05:11:10.140Z,59.28
2018-07-25T05:12:10.139Z,58.98
2018-07-25T05:13:10.140Z,58.31
2018-07-25T05:14:10.143Z,58.79
2018-07-25T05:15:10.156Z,58.31
2018-07-25T05:16:10.158Z,57.14
2018-07-25T05:17:10.154Z,57.53
2018-07-25T05:18:10.162Z,57.72
2018-07-25T05:19:10.160Z,57.17
2018-07-25T05:20:10.166Z,57.14
2018-07-25T05:21:10.180Z,57.62
2018-07-25T05:22:10.173Z,58.11
2018-07-25T05:23:10.180Z,58.31
2018-07-25T05:24:10.175Z,58.86
2018-07-25T05:25:10.174Z,59.34
2018-07-25T05:26:10.181Z,59.25
2018-07-25T05:27:10.181Z,59.80
2018-07-25T05:28:10.182Z,60.19
2018-07-25T05:29:10.188Z,60.00
2018-07-25T05:30:10.193Z,60.16
2018-07-25T05:31:10.189Z,60.94
2018-07-25T05:32:10.191Z,60.84
2018-07-25T05:33:10.196Z,61.22
2018-07-25T05:34:10.194Z,61.88
2018-07-25T05:35:10.197Z,62.10
2018-07-25T05:36:10.200Z,61.98
2018-07-25T05:37:10.201Z,61.88
2018-07-25T05:38:10.229Z,61.68
2018-07-25T05:39:10.206Z,61.49
2018-07-25T05:40:10.210Z,61.68
2018-07-25T05:41:10.209Z,61.98
2018-07-25T05:42:10.209Z,62.52
2018-07-25T05:43:10.210Z,62.33
2018-07-25T05:44:10.218Z,62.62
2018-07-25T05:45:10.213Z,62.46
2018-07-25T05:46:10.219Z,62.13
2018-07-25T05:47:10.218Z,62.55
2018-07-25T05:48:10.220Z,62.62
2018-07-25T05:49:10.220Z,61.78
2018-07-25T05:50:10.219Z,61.19
2018-07-25T05:51:10.220Z,61.10
2018-07-25T05:52:10.222Z,61.19
2018-07-25T05:53:10.225Z,61.49
2018-07-25T05:54:10.226Z,61.19
2018-07-25T05:55:10.229Z,61.00
2018-07-25T05:56:10.235Z,61.68
2018-07-25T05:57:10.228Z,61.88
2018-07-25T05:58:10.230Z,61.68
2018-07-25T05:59:10.235Z,62.36
2018-07-25T06:00:10.239Z,62.55
2018-07-25T06:01:10.234Z,63.13
2018-07-25T06:02:10.237Z,63.62
2018-07-25T06:03:10.293Z,63.23
2018-07-25T06:04:10.284Z,62.65
2018-07-25T06:05:10.240Z,62.55
2018-07-25T06:06:10.295Z,62.36
2018-07-25T06:07:10.245Z,62.55
2018-07-25T06:08:10.251Z,62.07
2018-07-25T06:09:10.271Z,62.55
2018-07-25T06:10:10.253Z,62.07
2018-07-25T06:11:10.268Z,62.36
2018-07-25T06:12:10.255Z,62.07
2018-07-25T06:13:10.297Z,62.55
2018-07-25T06:14:10.305Z,62.26
2018-07-25T06:15:10.255Z,62.65
2018-07-25T06:16:10.263Z,62.07
2018-07-25T06:17:10.264Z,63.13
2018-07-25T06:18:10.259Z,62.36
2018-07-25T06:19:10.262Z,62.75
2018-07-25T06:20:10.269Z,62.10
2018-07-25T06:21:10.264Z,61.81
2018-07-25T06:22:10.264Z,61.32
2018-07-25T06:23:10.269Z,61.04
2018-07-25T06:24:10.273Z,60.94
2018-07-25T06:25:10.269Z,61.04
2018-07-25T06:26:10.272Z,60.77
2018-07-25T06:27:10.275Z,60.87
2018-07-25T06:28:10.275Z,60.97
2018-07-25T06:29:10.276Z,61.07
2018-07-25T06:30:10.283Z,60.38
2018-07-25T06:31:10.295Z,60.87
2018-07-25T06:32:10.285Z,60.19
2018-07-25T06:33:10.283Z,60.38
2018-07-25T06:34:10.286Z,60.48
2018-07-25T06:35:10.286Z,60.28
2018-07-25T06:36:10.292Z,60.28
2018-07-25T06:37:10.291Z,60.09
2018-07-25T06:38:10.292Z,60.19
2018-07-25T06:39:10.293Z,60.38
2018-07-25T06:40:10.299Z,60.00
2018-07-25T06:41:10.303Z,59.90
2018-07-25T06:42:10.301Z,59.80
2018-07-25T06:43:10.341Z,60.09
2018-07-25T06:44:10.331Z,60.31
2018-07-25T06:45:10.304Z,59.92
2018-07-25T06:46:10.306Z,59.83
2018-07-25T06:47:10.314Z,59.80
2018-07-25T06:48:10.310Z,60.02
2018-07-25T06:49:10.315Z,59.80
2018-07-25T06:50:10.325Z,60.02
2018-07-25T06:51:10.317Z,59.92
2018-07-25T06:52:10.323Z,59.74
2018-07-25T06:53:10.330Z,59.25
2018-07-25T06:54:10.324Z,59.83
2018-07-25T06:55:10.326Z,59.64
2018-07-25T06:56:10.383Z,59.74
2018-07-25T06:57:10.383Z,59.38
2018-07-25T06:58:10.337Z,58.86
2018-07-25T06:59:10.338Z,59.28
2018-07-25T07:00:10.334Z,59.34
2018-07-25T07:01:10.335Z,59.57
2018-07-25T07:02:10.338Z,59.47
2018-07-25T07:03:10.364Z,58.98
2018-07-25T07:04:10.349Z,59.44
2018-07-25T07:05:10.349Z,59.74
2018-07-25T07:06:10.383Z,60.22
2018-07-25T07:07:10.356Z,59.95
2018-07-25T07:08:10.353Z,59.95
2018-07-25T07:09:10.359Z,59.95
2018-07-25T07:10:10.356Z,59.47
2018-07-25T07:11:10.364Z,59.95
2018-07-25T07:12:10.383Z,59.86
2018-07-25T07:13:10.363Z,59.18
2018-07-25T07:14:10.367Z,59.41
2018-07-25T07:15:10.421Z,59.11
2018-07-25T07:16:10.371Z,59.41
2018-07-25T07:17:10.379Z,58.92
2018-07-25T07:18:10.382Z,58.92
2018-07-25T07:19:10.380Z,58.62
2018-07-25T07:20:10.381Z,59.50
2018-07-25T07:21:10.389Z,59.31
2018-07-25T07:22:10.386Z,59.01
2018-07-25T07:23:10.388Z,58.62
2018-07-25T07:24:10.524Z,59.31
2018-07-25T07:25:10.400Z,59.53
2018-07-25T07:26:10.409Z,59.31
2018-07-25T07:27:10.450Z,59.43
2018-07-25T07:28:10.407Z,58.95
2018-07-25T07:29:10.403Z,59.53
2018-07-25T07:30:10.406Z,59.23
2018-07-25T07:31:10.409Z,58.36
2018-07-25T07:32:10.411Z,58.85
2018-07-25T07:33:10.414Z,59.50
2018-07-25T07:34:10.418Z,59.11
2018-07-25T07:35:10.436Z,59.43
2018-07-25T07:36:10.438Z,58.56
2018-07-25T07:37:10.431Z,58.07
2018-07-25T07:38:10.428Z,59.23
2018-07-25T07:39:10.438Z,59.33
2018-07-25T07:40:10.436Z,58.65
2018-07-25T07:41:10.441Z,58.65
2018-07-25T07:42:10.440Z,57.90
2018-07-25T07:43:10.443Z,57.03
2018-07-25T07:44:10.520Z,56.35
2018-07-25T07:45:10.447Z,56.15
2018-07-25T07:46:10.456Z,56.27
2018-07-25T07:47:10.458Z,56.37
2018-07-25T07:48:10.456Z,55.79
2018-07-25T07:49:10.465Z,55.01
2018-07-25T07:50:10.462Z,55.23
2018-07-25T07:51:10.466Z,55.52
2018-07-25T07:52:10.469Z,55.13
2018-07-25T07:53:10.476Z,55.23
2018-07-25T07:54:10.476Z,54.55
2018-07-25T07:55:10.479Z,55.60
2018-07-25T07:56:10.481Z,55.79
2018-07-25T07:57:10.486Z,56.09
2018-07-25T07:58:10.488Z,55.01
2018-07-25T07:59:10.491Z,55.79
2018-07-25T08:00:10.495Z,56.67
2018-07-25T08:01:10.497Z,56.27
2018-07-25T08:02:10.505Z,55.40
2018-07-25T08:03:10.511Z,54.46
2018-07-25T08:04:10.506Z,54.26
2018-07-25T08:05:10.518Z,54.26
2018-07-25T08:06:10.515Z,53.21
2018-07-25T08:07:10.518Z,53.02
2018-07-25T08:08:10.524Z,53.02
2018-07-25T08:09:10.526Z,52.85
2018-07-25T08:10:10.527Z,52.66
2018-07-25T08:11:10.544Z,52.46
2018-07-25T08:12:10.537Z,52.46
2018-07-25T08:13:10.540Z,51.87
2018-07-25T08:14:10.543Z,52.07
2018-07-25T08:15:10.549Z,52.04
2018-07-25T08:16:10.553Z,52.34
2018-07-25T08:17:10.555Z,53.21
2018-07-25T08:18:10.566Z,53.31
2018-07-25T08:19:10.578Z,52.92
2018-07-25T08:20:10.569Z,53.11
2018-07-25T08:21:10.668Z,53.41
2018-07-25T08:22:10.574Z,52.73
2018-07-25T08:23:10.578Z,52.53
2018-07-25T08:24:10.582Z,52.34
2018-07-25T08:25:10.589Z,52.04
2018-07-25T08:26:10.590Z,52.53
2018-07-25T08:27:10.594Z,52.04
2018-07-25T08:28:10.601Z,52.07
2018-07-25T08:29:10.605Z,52.07
2018-07-25T08:30:10.605Z,52.07
2018-07-25T08:31:10.607Z,51.97
2018-07-25T08:32:10.614Z,51.78
2018-07-25T08:33:10.615Z,51.51
2018-07-25T08:34:10.622Z,51.12
2018-07-25T08:35:10.625Z,50.82
2018-07-25T08:36:10.632Z,50.34
2018-07-25T08:37:10.633Z,49.66
2018-07-25T08:38:10.641Z,50.34
2018-07-25T08:39:10.641Z,50.34
2018-07-25T08:40:10.649Z,50.63
2018-07-25T08:41:10.708Z,50.73
2018-07-25T08:42:10.653Z,50.73
2018-07-25T08:43:10.659Z,50.43
2018-07-25T08:44:10.664Z,50.63
2018-07-25T08:45:10.665Z,50.43
2018-07-25T08:46:10.671Z,50.75
2018-07-25T08:47:10.673Z,50.43
2018-07-25T08:48:10.677Z,50.36
2018-07-25T08:49:10.686Z,49.88
2018-07-25T08:50:10.691Z,50.26
2018-07-25T08:51:10.692Z,49.78
2018-07-25T08:52:10.699Z,50.36
2018-07-25T08:53:10.698Z,49.88
2018-07-25T08:54:10.704Z,50.75
2018-07-25T08:55:10.707Z,50.46
2018-07-25T08:56:10.716Z,49.78
2018-07-25T08:57:10.715Z,49.98
2018-07-25T08:58:10.722Z,50.07
2018-07-25T08:59:10.725Z,49.58
2018-07-25T09:00:10.729Z,50.00
2018-07-25T09:01:10.733Z,50.20
2018-07-25T09:02:10.741Z,49.51
2018-07-25T09:03:10.743Z,49.71
2018-07-25T09:04:10.746Z,49.22
2018-07-25T09:05:10.757Z,49.51
2018-07-25T09:06:10.756Z,49.61
2018-07-25T09:07:10.760Z,49.80
2018-07-25T09:08:10.769Z,49.61
2018-07-25T09:09:10.772Z,49.33
2018-07-25T09:10:10.774Z,48.65
2018-07-25T09:11:10.779Z,48.75
2018-07-25T09:12:10.785Z,48.48
2018-07-25T09:13:10.841Z,48.77
2018-07-25T09:14:10.792Z,48.58
2018-07-25T09:15:10.799Z,48.58
2018-07-25T09:16:10.801Z,48.09
2018-07-25T09:17:10.809Z,48.02
2018-07-25T09:18:10.867Z,47.43
2018-07-25T09:19:10.826Z,47.14
2018-07-25T09:20:10.822Z,47.04
2018-07-25T09:21:10.826Z,47.14
2018-07-25T09:22:10.832Z,46.36
2018-07-25T09:23:10.841Z,46.72
2018-07-25T09:24:10.840Z,47.02
2018-07-25T09:25:10.912Z,46.62
2018-07-25T09:26:10.850Z,46.72
2018-07-25T09:27:10.862Z,47.11
2018-07-25T09:28:10.865Z,47.02
2018-07-25T09:29:10.867Z,46.92
2018-07-25T09:30:10.871Z,47.41
2018-07-25T09:31:10.876Z,46.62
2018-07-25T09:32:10.882Z,46.23
2018-07-25T09:33:10.885Z,45.06
2018-07-25T09:34:11.094Z,45.75
2018-07-25T09:35:10.896Z,46.43
2018-07-25T09:36:10.902Z,46.45
2018-07-25T09:37:10.910Z,46.26
2018-07-25T09:38:10.915Z,46.45
2018-07-25T09:39:10.919Z,46.37
2018-07-25T09:40:10.924Z,44.40
2018-07-25T09:41:10.930Z,40.11
2018-07-25T09:42:10.935Z,38.82
2018-07-25T09:43:10.941Z,37.55
2018-07-25T09:44:10.948Z,37.35
2018-07-25T09:45:10.949Z,37.73
2018-07-25T09:46:10.975Z,38.32
2018-07-25T09:47:10.960Z,35.97
2018-07-25T09:48:10.963Z,36.26
2018-07-25T09:49:10.968Z,37.41
2018-07-25T09:50:10.978Z,37.02
2018-07-25T09:51:10.979Z,37.12
2018-07-25T09:52:10.988Z,35.85
2018-07-25T09:53:11.062Z,35.16
2018-07-25T09:54:10.993Z,36.04
2018-07-25T09:55:11.000Z,36.23
2018-07-25T09:56:11.003Z,35.94
2018-07-25T09:57:11.008Z,35.84
2018-07-25T09:58:11.031Z,36.23
2018-07-25T09:59:11.042Z,34.96
2018-07-25T10:00:11.032Z,33.11
2018-07-25T10:01:11.131Z,33.79
2018-07-25T10:02:11.031Z,33.70
2018-07-25T10:03:11.037Z,34.19
2018-07-25T10:04:11.038Z,34.97
2018-07-25T10:05:11.045Z,35.35
2018-07-25T10:06:11.056Z,35.94
2018-07-25T10:07:11.069Z,36.04
2018-07-25T10:08:11.058Z,37.12
2018-07-25T10:09:11.072Z,37.22
2018-07-25T10:10:11.084Z,35.95
2018-07-25T10:11:11.099Z,37.22
2018-07-25T10:12:11.084Z,37.12
2018-07-25T10:13:11.088Z,36.63
2018-07-25T10:14:11.085Z,36.55
2018-07-25T10:15:11.197Z,37.22
2018-07-25T10:16:11.097Z,36.94
2018-07-25T10:17:11.105Z,36.93
2018-07-25T10:18:11.107Z,37.32
2018-07-25T10:19:11.118Z,37.04
2018-07-25T10:20:11.113Z,37.34
2018-07-25T10:21:11.119Z,37.73
2018-07-25T10:22:11.131Z,37.14
2018-07-25T10:23:11.127Z,35.87
2018-07-25T10:24:11.135Z,35.68
2018-07-25T10:25:11.137Z,35.77
2018-07-25T10:26:11.151Z,35.97
2018-07-25T10:27:11.210Z,35.97
2018-07-25T10:28:11.152Z,35.50
2018-07-25T10:29:11.157Z,35.50
2018-07-25T10:30:11.160Z,35.89
2018-07-25T10:31:11.216Z,35.91
2018-07-25T10:32:11.190Z,35.32
2018-07-25T10:33:11.176Z,36.30
2018-07-25T10:34:11.191Z,35.03
2018-07-25T10:35:11.217Z,32.68
2018-07-25T10:36:11.194Z,33.07
2018-07-25T10:37:11.197Z,32.68
2018-07-25T10:38:11.200Z,33.56
2018-07-25T10:39:11.210Z,33.17
2018-07-25T10:40:11.212Z,33.26
2018-07-25T10:41:11.214Z,34.14
2018-07-25T10:42:11.222Z,34.83
2018-07-25T10:43:11.226Z,34.93
2018-07-25T10:44:11.232Z,35.03
2018-07-25T10:45:11.236Z,34.34
2018-07-25T10:46:11.243Z,33.56
2018-07-25T10:47:11.246Z,34.05
2018-07-25T10:48:11.252Z,34.14
2018-07-25T10:49:11.258Z,32.97
2018-07-25T10:50:11.268Z,32.29
2018-07-25T10:51:11.273Z,32.78
2018-07-25T10:52:11.273Z,33.65
2018-07-25T10:53:11.277Z,32.78
2018-07-25T10:54:11.282Z,32.68
2018-07-25T10:55:11.291Z,33.26
2018-07-25T10:56:11.292Z,32.78
2018-07-25T10:57:11.303Z,32.10
2018-07-25T10:58:11.304Z,32.78
2018-07-25T10:59:11.309Z,32.48
2018-07-25T11:00:11.313Z,31.60
2018-07-25T11:01:11.320Z,29.74
2018-07-25T11:02:11.357Z,30.23
2018-07-25T11:03:11.329Z,30.43
2018-07-25T11:04:11.335Z,30.13
2018-07-25T11:05:11.342Z,32.17
2018-07-25T11:06:11.345Z,31.70
2018-07-25T11:07:11.351Z,31.21
2018-07-25T11:08:11.356Z,31.21
2018-07-25T11:09:11.364Z,31.59
2018-07-25T11:10:11.365Z,31.39
2018-07-25T11:11:11.374Z,30.72
2018-07-25T11:12:11.377Z,31.60
2018-07-25T11:13:11.380Z,31.90
2018-07-25T11:14:11.386Z,31.99
2018-07-25T11:15:11.393Z,31.01
2018-07-25T11:16:11.399Z,30.62
2018-07-25T11:17:11.403Z,31.10
2018-07-25T11:18:11.407Z,31.49
2018-07-25T11:19:11.494Z,31.39
2018-07-25T11:20:11.417Z,31.70
2018-07-25T11:21:11.422Z,31.00
2018-07-25T11:22:11.427Z,30.61
2018-07-25T11:23:11.552Z,30.12
2018-07-25T11:24:11.438Z,29.84
2018-07-25T11:25:11.447Z,29.83
2018-07-25T11:26:11.447Z,29.45
2018-07-25T11:27:11.456Z,28.08
2018-07-25T11:28:11.456Z,29.06
2018-07-25T11:29:11.465Z,28.67
2018-07-25T11:30:11.473Z,27.78
2018-07-25T11:31:11.476Z,28.39
2018-07-25T11:32:11.479Z,28.39
2018-07-25T11:33:11.487Z,28.78
2018-07-25T11:34:11.585Z,28.20
2018-07-25T11:35:11.494Z,28.40
2018-07-25T11:36:11.502Z,26.82
2018-07-25T11:37:11.506Z,26.54
2018-07-25T11:38:11.524Z,26.64
2018-07-25T11:39:11.515Z,26.33
2018-07-25T11:40:11.523Z,25.95
2018-07-25T11:41:11.530Z,26.15
2018-07-25T11:42:11.533Z,26.04
2018-07-25T11:43:11.541Z,26.82
2018-07-25T11:44:11.541Z,26.43
2018-07-25T11:45:11.546Z,26.51
2018-07-25T11:46:11.559Z,25.74
2018-07-25T11:47:11.564Z,24.76
2018-07-25T11:48:11.566Z,25.94
2018-07-25T11:49:11.566Z,25.74
2018-07-25T11:50:11.579Z,25.56
2018-07-25T11:51:11.580Z,26.15
2018-07-25T11:52:11.583Z,25.85
2018-07-25T11:53:11.590Z,24.97
2018-07-25T11:54:11.593Z,24.48
2018-07-25T11:55:11.605Z,24.48
2018-07-25T11:56:11.605Z,25.27
2018-07-25T11:57:11.612Z,25.27
2018-07-25T11:58:11.617Z,25.85
2018-07-25T11:59:11.621Z,26.44
2018-07-25T12:00:11.627Z,26.54
2018-07-25T12:01:11.684Z,26.83
2018-07-25T12:02:11.640Z,26.93
2018-07-25T12:03:11.643Z,26.95
2018-07-25T12:04:11.655Z,27.44
2018-07-25T12:05:11.654Z,27.83
2018-07-25T12:06:11.663Z,27.91
2018-07-25T12:07:11.665Z,29.00
2018-07-25T12:08:11.678Z,27.44
2018-07-25T12:09:11.677Z,26.83
2018-07-25T12:10:11.684Z,26.34
2018-07-25T12:11:11.689Z,26.64
2018-07-25T12:12:11.693Z,27.23
2018-07-25T12:13:11.702Z,27.23
2018-07-25T12:14:11.707Z,27.62
2018-07-25T12:15:11.720Z,27.12
2018-07-25T12:16:11.717Z,26.34
2018-07-25T12:17:11.723Z,25.95
2018-07-25T12:18:11.731Z,26.64
2018-07-25T12:19:11.740Z,25.84
2018-07-25T12:20:11.737Z,26.15
2018-07-25T12:21:11.747Z,26.15
2018-07-25T12:22:11.754Z,26.44
2018-07-25T12:23:11.760Z,27.24
2018-07-25T12:24:11.760Z,26.95
2018-07-25T12:25:11.765Z,26.16
2018-07-25T12:26:11.777Z,26.45
2018-07-25T12:27:11.777Z,26.26
2018-07-25T12:28:11.783Z,25.67
2018-07-25T12:29:11.789Z,25.77
2018-07-25T12:30:11.794Z,26.26
2018-07-25T12:31:11.801Z,26.83
2018-07-25T12:32:11.829Z,27.33
2018-07-25T12:33:11.814Z,27.62
2018-07-25T12:34:11.818Z,27.23
2018-07-25T12:35:11.830Z,27.03
2018-07-25T12:36:11.832Z,27.23
2018-07-25T12:37:11.838Z,27.91
2018-07-25T12:38:11.842Z,26.83
2018-07-25T12:39:11.846Z,26.54
2018-07-25T12:40:11.851Z,27.42
2018-07-25T12:41:11.862Z,27.63
2018-07-25T12:42:11.863Z,27.34
2018-07-25T12:43:11.868Z,27.14
2018-07-25T12:44:11.880Z,27.42
2018-07-25T12:45:11.880Z,27.23
2018-07-25T12:46:11.887Z,27.62
2018-07-25T12:47:11.894Z,27.12
2018-07-25T12:48:11.897Z,26.84
2018-07-25T12:49:11.901Z,26.55
2018-07-25T12:50:11.907Z,26.75
2018-07-25T12:51:11.917Z,26.26
2018-07-25T12:52:11.921Z,25.67